Time,TemperatureF,DewpointF,PressureIn,WindDirection,WindDirectionDegrees,WindSpeedMPH,WindSpeedGustMPH,Humidity,HourlyPrecipIn,Conditions,Clouds,dailyrainin,SoftwareType,DateUTC
2013-06-27 00:01:00,69.4,55.9,-100.00,North,-999,-999.0,-999.0,62,-99.99,,---,-99.99,VWS V14.01,2013-06-27 07:01:00,
2013-06-27 00:06:00,69.3,56.1,-100.00,North,-999,-999.0,-999.0,63,-99.99,,---,-99.99,VWS V14.01,2013-06-27 07:06:00,
2013-06-27 00:11:00,69.3,56.1,-100.00,North,-999,-999.0,-999.0,63,-99.99,,---,-99.99,VWS V14.01,2013-06-27 07:11:00,
2013-06-27 00:16:00,69.1,56.0,-100.00,North,-999,-999.0,-999.0,63,-99.99,,---,-99.99,VWS V14.01,2013-06-27 07:16:00,
2013-06-27 00:22:00,69.1,56.0,-100.00,North,-999,-999.0,-999.0,63,-99.99,,---,-99.99,VWS V14.01,2013-06-27 07:22:00,
2013-06-27 00:27:00,68.9,56.2,-100.00,North,-999,-999.0,-999.0,64,-99.99,,---,-99.99,VWS V14.01,2013-06-27 07:27:00,
2013-06-27 00:32:00,68.7,56.1,-100.00,North,-999,-999.0,-999.0,64,-99.99,,---,-99.99,VWS V14.01,2013-06-27 07:32:00,
2013-06-27 00:37:00,68.7,56.1,-100.00,North,-999,-999.0,-999.0,64,-99.99,,---,-99.99,VWS V14.01,2013-06-27 07:37:00,
2013-06-27 00:42:00,68.5,56.3,-100.00,North,-999,-999.0,-999.0,65,-99.99,,---,-99.99,VWS V14.01,2013-06-27 07:42:00,
2013-06-27 00:47:00,68.5,56.3,-100.00,North,-999,-999.0,-999.0,65,-99.99,,---,-99.99,VWS V14.01,2013-06-27 07:47:00,
2013-06-27 00:52:00,68.4,56.2,-100.00,North,-999,-999.0,-999.0,65,-99.99,,---,-99.99,VWS V14.01,2013-06-27 07:52:00,
2013-06-27 00:57:00,68.4,56.2,-100.00,North,-999,-999.0,-999.0,65,-99.99,,---,-99.99,VWS V14.01,2013-06-27 07:57:00,
2013-06-27 01:02:00,68.2,56.0,-100.00,North,-999,-999.0,-999.0,65,-99.99,,---,-99.99,VWS V14.01,2013-06-27 08:02:00,
2013-06-27 01:13:00,68.2,56.4,-100.00,North,-999,-999.0,-999.0,66,-99.99,,---,-99.99,VWS V14.01,2013-06-27 08:13:00,
2013-06-27 01:19:00,68.2,56.4,-100.00,North,-999,-999.0,-999.0,66,-99.99,,---,-99.99,VWS V14.01,2013-06-27 08:19:00,
2013-06-27 01:25:00,68.2,56.4,-100.00,North,-999,-999.0,-999.0,66,-99.99,,---,-99.99,VWS V14.01,2013-06-27 08:25:00,
2013-06-27 01:30:00,68.0,56.2,-100.00,North,-999,-999.0,-999.0,66,-99.99,,---,-99.99,VWS V14.01,2013-06-27 08:30:00,
2013-06-27 01:35:00,68.0,56.2,-100.00,North,-999,-999.0,-999.0,66,-99.99,,---,-99.99,VWS V14.01,2013-06-27 08:35:00,
2013-06-27 01:41:00,68.0,56.2,-100.00,North,-999,-999.0,-999.0,66,-99.99,,---,-99.99,VWS V14.01,2013-06-27 08:41:00,
2013-06-27 01:46:00,68.0,56.2,-100.00,North,-999,-999.0,-999.0,66,-99.99,,---,-99.99,VWS V14.01,2013-06-27 08:46:00,
2013-06-27 01:51:00,68.0,56.2,-100.00,North,-999,-999.0,-999.0,66,-99.99,,---,-99.99,VWS V14.01,2013-06-27 08:51:00,
2013-06-27 01:56:00,68.0,56.2,-100.00,North,-999,-999.0,-999.0,66,-99.99,,---,-99.99,VWS V14.01,2013-06-27 08:56:00,
2013-06-27 02:03:00,68.0,56.2,-100.00,North,-999,-999.0,-999.0,66,-99.99,,---,-99.99,VWS V14.01,2013-06-27 09:03:00,
2013-06-27 02:08:00,68.0,56.2,-100.00,North,-999,-999.0,-999.0,66,-99.99,,---,-99.99,VWS V14.01,2013-06-27 09:08:00,
2013-06-27 02:13:00,67.8,56.5,-100.00,North,-999,-999.0,-999.0,67,-99.99,,---,-99.99,VWS V14.01,2013-06-27 09:13:00,
2013-06-27 02:18:00,67.8,56.5,-100.00,North,-999,-999.0,-999.0,67,-99.99,,---,-99.99,VWS V14.01,2013-06-27 09:18:00,
2013-06-27 02:23:00,67.6,56.3,-100.00,North,-999,-999.0,-999.0,67,-99.99,,---,-99.99,VWS V14.01,2013-06-27 09:23:00,
2013-06-27 02:28:00,67.6,56.3,-100.00,North,-999,-999.0,-999.0,67,-99.99,,---,-99.99,VWS V14.01,2013-06-27 09:28:00,
2013-06-27 02:33:00,67.6,56.3,-100.00,North,-999,-999.0,-999.0,67,-99.99,,---,-99.99,VWS V14.01,2013-06-27 09:33:00,
2013-06-27 02:38:00,67.6,56.3,-100.00,North,-999,-999.0,-999.0,67,-99.99,,---,-99.99,VWS V14.01,2013-06-27 09:38:00,
2013-06-27 02:43:00,67.5,56.1,-100.00,North,-999,-999.0,-999.0,67,-99.99,,---,-99.99,VWS V14.01,2013-06-27 09:43:00,
2013-06-27 02:48:00,67.5,56.1,-100.00,North,-999,-999.0,-999.0,67,-99.99,,---,-99.99,VWS V14.01,2013-06-27 09:48:00,
2013-06-27 02:53:00,67.5,56.1,-100.00,North,-999,-999.0,-999.0,67,-99.99,,---,-99.99,VWS V14.01,2013-06-27 09:53:00,
2013-06-27 02:58:00,67.3,56.0,-100.00,North,-999,-999.0,-999.0,67,-99.99,,---,-99.99,VWS V14.01,2013-06-27 09:58:00,
2013-06-27 03:03:00,67.1,55.8,-100.00,North,-999,-999.0,-999.0,67,-99.99,,---,-99.99,VWS V14.01,2013-06-27 10:03:00,
2013-06-27 03:11:00,66.7,55.5,-100.00,North,-999,-999.0,-999.0,67,-99.99,,---,-99.99,VWS V14.01,2013-06-27 10:11:00,
2013-06-27 03:16:00,66.7,55.8,-100.00,North,-999,-999.0,-999.0,68,-99.99,,---,-99.99,VWS V14.01,2013-06-27 10:16:00,
2013-06-27 03:21:00,66.7,55.8,-100.00,North,-999,-999.0,-999.0,68,-99.99,,---,-99.99,VWS V14.01,2013-06-27 10:21:00,
2013-06-27 03:26:00,66.7,55.8,-100.00,North,-999,-999.0,-999.0,68,-99.99,,---,-99.99,VWS V14.01,2013-06-27 10:26:00,
2013-06-27 03:31:00,66.4,55.5,-100.00,North,-999,-999.0,-999.0,68,-99.99,,---,-99.99,VWS V14.01,2013-06-27 10:31:00,
2013-06-27 03:36:00,66.4,55.5,-100.00,North,-999,-999.0,-999.0,68,-99.99,,---,-99.99,VWS V14.01,2013-06-27 10:36:00,
2013-06-27 03:41:00,66.2,55.3,-100.00,North,-999,-999.0,-999.0,68,-99.99,,---,-99.99,VWS V14.01,2013-06-27 10:41:00,
2013-06-27 03:46:00,66.2,55.3,-100.00,North,-999,-999.0,-999.0,68,-99.99,,---,-99.99,VWS V14.01,2013-06-27 10:46:00,
2013-06-27 03:51:00,66.2,55.3,-100.00,North,-999,-999.0,-999.0,68,-99.99,,---,-99.99,VWS V14.01,2013-06-27 10:51:00,
2013-06-27 03:56:00,66.2,55.3,-100.00,North,-999,-999.0,-999.0,68,-99.99,,---,-99.99,VWS V14.01,2013-06-27 10:56:00,
2013-06-27 04:01:00,66.2,55.3,-100.00,North,-999,-999.0,-999.0,68,-99.99,,---,-99.99,VWS V14.01,2013-06-27 11:01:00,
2013-06-27 04:06:00,66.2,55.3,-100.00,North,-999,-999.0,-999.0,68,-99.99,,---,-99.99,VWS V14.01,2013-06-27 11:06:00,
2013-06-27 04:11:00,66.0,55.2,-100.00,North,-999,-999.0,-999.0,68,-99.99,,---,-99.99,VWS V14.01,2013-06-27 11:11:00,
2013-06-27 04:16:00,65.8,55.0,-100.00,North,-999,-999.0,-999.0,68,-99.99,,---,-99.99,VWS V14.01,2013-06-27 11:16:00,
2013-06-27 04:21:00,65.8,55.0,-100.00,North,-999,-999.0,-999.0,68,-99.99,,---,-99.99,VWS V14.01,2013-06-27 11:21:00,
2013-06-27 04:26:00,65.8,55.0,-100.00,North,-999,-999.0,-999.0,68,-99.99,,---,-99.99,VWS V14.01,2013-06-27 11:26:00,
2013-06-27 04:31:00,65.8,55.0,-100.00,North,-999,-999.0,-999.0,68,-99.99,,---,-99.99,VWS V14.01,2013-06-27 11:31:00,
2013-06-27 04:36:00,65.5,54.7,-100.00,North,-999,-999.0,-999.0,68,-99.99,,---,-99.99,VWS V14.01,2013-06-27 11:36:00,
2013-06-27 04:41:00,65.5,54.7,-100.00,North,-999,-999.0,-999.0,68,-99.99,,---,-99.99,VWS V14.01,2013-06-27 11:41:00,
2013-06-27 04:46:00,65.3,54.5,-100.00,North,-999,-999.0,-999.0,68,-99.99,,---,-99.99,VWS V14.01,2013-06-27 11:46:00,
2013-06-27 04:51:00,65.1,54.3,-100.00,North,-999,-999.0,-999.0,68,-99.99,,---,-99.99,VWS V14.01,2013-06-27 11:51:00,
2013-06-27 04:56:00,65.1,54.3,-100.00,North,-999,-999.0,-999.0,68,-99.99,,---,-99.99,VWS V14.01,2013-06-27 11:56:00,
2013-06-27 05:01:00,64.9,54.1,-100.00,North,-999,-999.0,-999.0,68,-99.99,,---,-99.99,VWS V14.01,2013-06-27 12:01:00,
2013-06-27 05:06:00,64.9,54.1,-100.00,North,-999,-999.0,-999.0,68,-99.99,,---,-99.99,VWS V14.01,2013-06-27 12:06:00,
2013-06-27 05:11:00,64.8,54.0,-100.00,North,-999,-999.0,-999.0,68,-99.99,,---,-99.99,VWS V14.01,2013-06-27 12:11:00,
2013-06-27 05:16:00,64.6,53.8,-100.00,North,-999,-999.0,-999.0,68,-99.99,,---,-99.99,VWS V14.01,2013-06-27 12:16:00,
2013-06-27 05:21:00,64.4,53.6,-100.00,North,-999,-999.0,-999.0,68,-99.99,,---,-99.99,VWS V14.01,2013-06-27 12:21:00,
2013-06-27 05:26:00,64.2,53.8,-100.00,North,-999,-999.0,-999.0,69,-99.99,,---,-99.99,VWS V14.01,2013-06-27 12:26:00,
2013-06-27 05:31:00,64.2,53.8,-100.00,North,-999,-999.0,-999.0,69,-99.99,,---,-99.99,VWS V14.01,2013-06-27 12:31:00,
2013-06-27 05:36:00,64.2,53.8,-100.00,North,-999,-999.0,-999.0,69,-99.99,,---,-99.99,VWS V14.01,2013-06-27 12:36:00,
2013-06-27 05:41:00,64.2,53.8,-100.00,North,-999,-999.0,-999.0,69,-99.99,,---,-99.99,VWS V14.01,2013-06-27 12:41:00,
2013-06-27 05:46:00,64.0,53.7,-100.00,North,-999,-999.0,-999.0,69,-99.99,,---,-99.99,VWS V14.01,2013-06-27 12:46:00,
2013-06-27 05:51:00,64.0,53.7,-100.00,North,-999,-999.0,-999.0,69,-99.99,,---,-99.99,VWS V14.01,2013-06-27 12:51:00,
2013-06-27 05:56:00,63.9,53.5,-100.00,North,-999,-999.0,-999.0,69,-99.99,,---,-99.99,VWS V14.01,2013-06-27 12:56:00,
2013-06-27 06:01:00,63.9,53.5,-100.00,North,-999,-999.0,-999.0,69,-99.99,,---,-99.99,VWS V14.01,2013-06-27 13:01:00,
2013-06-27 06:06:00,63.9,53.5,-100.00,North,-999,-999.0,-999.0,69,-99.99,,---,-99.99,VWS V14.01,2013-06-27 13:06:00,
2013-06-27 06:11:00,63.7,53.3,-100.00,North,-999,-999.0,-999.0,69,-99.99,,---,-99.99,VWS V14.01,2013-06-27 13:11:00,
2013-06-27 06:16:00,63.7,53.7,-100.00,North,-999,-999.0,-999.0,70,-99.99,,---,-99.99,VWS V14.01,2013-06-27 13:16:00,
2013-06-27 06:21:00,63.7,53.7,-100.00,North,-999,-999.0,-999.0,70,-99.99,,---,-99.99,VWS V14.01,2013-06-27 13:21:00,
2013-06-27 06:26:00,63.5,53.5,-100.00,North,-999,-999.0,-999.0,70,-99.99,,---,-99.99,VWS V14.01,2013-06-27 13:26:00,
2013-06-27 06:31:00,63.7,53.7,-100.00,North,-999,-999.0,-999.0,70,-99.99,,---,-99.99,VWS V14.01,2013-06-27 13:31:00,
2013-06-27 06:36:00,63.5,53.5,-100.00,North,-999,-999.0,-999.0,70,-99.99,,---,-99.99,VWS V14.01,2013-06-27 13:36:00,
2013-06-27 06:41:00,63.7,53.7,-100.00,North,-999,-999.0,-999.0,70,-99.99,,---,-99.99,VWS V14.01,2013-06-27 13:41:00,
2013-06-27 06:46:00,63.9,53.9,-100.00,North,-999,-999.0,-999.0,70,-99.99,,---,-99.99,VWS V14.01,2013-06-27 13:46:00,
2013-06-27 06:51:00,64.2,54.2,-100.00,North,-999,-999.0,-999.0,70,-99.99,,---,-99.99,VWS V14.01,2013-06-27 13:51:00,
2013-06-27 06:56:00,64.6,54.6,-100.00,North,-999,-999.0,-999.0,70,-99.99,,---,-99.99,VWS V14.01,2013-06-27 13:56:00,
2013-06-27 07:01:00,64.9,54.9,-100.00,North,-999,-999.0,-999.0,70,-99.99,,---,-99.99,VWS V14.01,2013-06-27 14:01:00,
2013-06-27 07:06:00,65.5,55.5,-100.00,North,-999,-999.0,-999.0,70,-99.99,,---,-99.99,VWS V14.01,2013-06-27 14:06:00,
2013-06-27 07:11:00,66.0,56.0,-100.00,North,-999,-999.0,-999.0,70,-99.99,,---,-99.99,VWS V14.01,2013-06-27 14:11:00,
2013-06-27 07:16:00,66.4,55.9,-100.00,North,-999,-999.0,-999.0,69,-99.99,,---,-99.99,VWS V14.01,2013-06-27 14:16:00,
2013-06-27 07:21:00,66.9,56.4,-100.00,North,-999,-999.0,-999.0,69,-99.99,,---,-99.99,VWS V14.01,2013-06-27 14:21:00,
2013-06-27 07:26:00,67.5,57.0,-100.00,North,-999,-999.0,-999.0,69,-99.99,,---,-99.99,VWS V14.01,2013-06-27 14:26:00,
2013-06-27 07:31:00,68.0,57.5,-100.00,North,-999,-999.0,-999.0,69,-99.99,,---,-99.99,VWS V14.01,2013-06-27 14:31:00,
2013-06-27 07:36:00,68.7,57.7,-100.00,North,-999,-999.0,-999.0,68,-99.99,,---,-99.99,VWS V14.01,2013-06-27 14:36:00,
2013-06-27 07:41:00,69.3,58.3,-100.00,North,-999,-999.0,-999.0,68,-99.99,,---,-99.99,VWS V14.01,2013-06-27 14:41:00,
2013-06-27 07:46:00,69.8,58.8,-100.00,North,-999,-999.0,-999.0,68,-99.99,,---,-99.99,VWS V14.01,2013-06-27 14:46:00,
2013-06-27 07:51:00,70.3,58.9,-100.00,North,-999,-999.0,-999.0,67,-99.99,,---,-99.99,VWS V14.01,2013-06-27 14:51:00,
2013-06-27 07:56:00,70.9,59.4,-100.00,North,-999,-999.0,-999.0,67,-99.99,,---,-99.99,VWS V14.01,2013-06-27 14:56:00,
2013-06-27 08:01:00,71.4,59.9,-100.00,North,-999,-999.0,-999.0,67,-99.99,,---,-99.99,VWS V14.01,2013-06-27 15:01:00,
2013-06-27 08:06:00,72.0,60.0,-100.00,North,-999,-999.0,-999.0,66,-99.99,,---,-99.99,VWS V14.01,2013-06-27 15:06:00,
2013-06-27 08:11:00,72.5,60.5,-100.00,North,-999,-999.0,-999.0,66,-99.99,,---,-99.99,VWS V14.01,2013-06-27 15:11:00,
2013-06-27 08:16:00,73.0,60.6,-100.00,North,-999,-999.0,-999.0,65,-99.99,,---,-99.99,VWS V14.01,2013-06-27 15:16:00,
2013-06-27 08:21:00,73.6,61.1,-100.00,North,-999,-999.0,-999.0,65,-99.99,,---,-99.99,VWS V14.01,2013-06-27 15:21:00,
2013-06-27 08:26:00,74.1,61.2,-100.00,North,-999,-999.0,-999.0,64,-99.99,,---,-99.99,VWS V14.01,2013-06-27 15:26:00,
2013-06-27 08:31:00,74.1,61.2,-100.00,North,-999,-999.0,-999.0,64,-99.99,,---,-99.99,VWS V14.01,2013-06-27 15:31:00,
2013-06-27 08:36:00,74.3,60.9,-100.00,North,-999,-999.0,-999.0,63,-99.99,,---,-99.99,VWS V14.01,2013-06-27 15:36:00,
2013-06-27 08:41:00,74.8,61.9,-100.00,North,-999,-999.0,-999.0,64,-99.99,,---,-99.99,VWS V14.01,2013-06-27 15:41:00,
2013-06-27 08:46:00,75.4,61.9,-100.00,North,-999,-999.0,-999.0,63,-99.99,,---,-99.99,VWS V14.01,2013-06-27 15:46:00,
2013-06-27 08:51:00,75.9,62.0,-100.00,North,-999,-999.0,-999.0,62,-99.99,,---,-99.99,VWS V14.01,2013-06-27 15:51:00,
2013-06-27 08:56:00,76.5,62.5,-100.00,North,-999,-999.0,-999.0,62,-99.99,,---,-99.99,VWS V14.01,2013-06-27 15:56:00,
2013-06-27 09:01:00,76.8,62.8,-100.00,North,-999,-999.0,-999.0,62,-99.99,,---,-99.99,VWS V14.01,2013-06-27 16:01:00,
2013-06-27 09:11:00,77.9,62.9,-100.00,North,-999,-999.0,-999.0,60,-99.99,,---,-99.99,VWS V14.01,2013-06-27 16:11:00,
2013-06-27 09:16:00,78.3,62.8,-100.00,North,-999,-999.0,-999.0,59,-99.99,,---,-99.99,VWS V14.01,2013-06-27 16:16:00,
2013-06-27 09:21:00,78.8,63.3,-100.00,North,-999,-999.0,-999.0,59,-99.99,,---,-99.99,VWS V14.01,2013-06-27 16:21:00,
2013-06-27 09:26:00,79.2,63.1,-100.00,North,-999,-999.0,-999.0,58,-99.99,,---,-99.99,VWS V14.01,2013-06-27 16:26:00,
2013-06-27 09:31:00,79.7,63.6,-100.00,North,-999,-999.0,-999.0,58,-99.99,,---,-99.99,VWS V14.01,2013-06-27 16:31:00,
2013-06-27 09:36:00,80.4,64.3,-100.00,North,-999,-999.0,-999.0,58,-99.99,,---,-99.99,VWS V14.01,2013-06-27 16:36:00,
2013-06-27 09:41:00,81.0,63.8,-100.00,North,-999,-999.0,-999.0,56,-99.99,,---,-99.99,VWS V14.01,2013-06-27 16:41:00,
2013-06-27 09:46:00,81.3,64.1,-100.00,North,-999,-999.0,-999.0,56,-99.99,,---,-99.99,VWS V14.01,2013-06-27 16:46:00,
2013-06-27 09:51:00,81.7,64.0,-100.00,North,-999,-999.0,-999.0,55,-99.99,,---,-99.99,VWS V14.01,2013-06-27 16:51:00,
2013-06-27 09:56:00,82.2,64.5,-100.00,North,-999,-999.0,-999.0,55,-99.99,,---,-99.99,VWS V14.01,2013-06-27 16:56:00,
2013-06-27 10:01:00,82.6,64.3,-100.00,North,-999,-999.0,-999.0,54,-99.99,,---,-99.99,VWS V14.01,2013-06-27 17:01:00,
2013-06-27 10:06:00,82.9,64.1,-100.00,North,-999,-999.0,-999.0,53,-99.99,,---,-99.99,VWS V14.01,2013-06-27 17:06:00,
2013-06-27 10:11:00,83.5,64.6,-100.00,North,-999,-999.0,-999.0,53,-99.99,,---,-99.99,VWS V14.01,2013-06-27 17:11:00,
2013-06-27 10:16:00,83.7,64.2,-100.00,North,-999,-999.0,-999.0,52,-99.99,,---,-99.99,VWS V14.01,2013-06-27 17:16:00,
2013-06-27 10:21:00,84.4,64.3,-100.00,North,-999,-999.0,-999.0,51,-99.99,,---,-99.99,VWS V14.01,2013-06-27 17:21:00,
2013-06-27 10:26:00,84.7,64.6,-100.00,North,-999,-999.0,-999.0,51,-99.99,,---,-99.99,VWS V14.01,2013-06-27 17:26:00,
2013-06-27 10:31:00,85.3,65.1,-100.00,North,-999,-999.0,-999.0,51,-99.99,,---,-99.99,VWS V14.01,2013-06-27 17:31:00,
2013-06-27 10:36:00,85.8,65.1,-100.00,North,-999,-999.0,-999.0,50,-99.99,,---,-99.99,VWS V14.01,2013-06-27 17:36:00,
2013-06-27 10:41:00,86.2,65.4,-100.00,North,-999,-999.0,-999.0,50,-99.99,,---,-99.99,VWS V14.01,2013-06-27 17:41:00,
2013-06-27 10:46:00,86.4,64.4,-100.00,North,-999,-999.0,-999.0,48,-99.99,,---,-99.99,VWS V14.01,2013-06-27 17:46:00,
2013-06-27 10:51:00,86.5,63.9,-100.00,North,-999,-999.0,-999.0,47,-99.99,,---,-99.99,VWS V14.01,2013-06-27 17:51:00,
2013-06-27 10:56:00,86.9,64.3,-100.00,North,-999,-999.0,-999.0,47,-99.99,,---,-99.99,VWS V14.01,2013-06-27 17:56:00,
2013-06-27 11:01:00,87.1,63.8,-100.00,North,-999,-999.0,-999.0,46,-99.99,,---,-99.99,VWS V14.01,2013-06-27 18:01:00,
2013-06-27 11:06:00,87.6,63.7,-100.00,North,-999,-999.0,-999.0,45,-99.99,,---,-99.99,VWS V14.01,2013-06-27 18:06:00,
2013-06-27 11:11:00,88.0,64.0,-100.00,North,-999,-999.0,-999.0,45,-99.99,,---,-99.99,VWS V14.01,2013-06-27 18:11:00,
2013-06-27 11:16:00,88.3,63.7,-100.00,North,-999,-999.0,-999.0,44,-99.99,,---,-99.99,VWS V14.01,2013-06-27 18:16:00,
2013-06-27 11:21:00,88.5,63.8,-100.00,North,-999,-999.0,-999.0,44,-99.99,,---,-99.99,VWS V14.01,2013-06-27 18:21:00,
2013-06-27 11:26:00,88.7,64.0,-100.00,North,-999,-999.0,-999.0,44,-99.99,,---,-99.99,VWS V14.01,2013-06-27 18:26:00,
2013-06-27 11:31:00,89.2,63.8,-100.00,North,-999,-999.0,-999.0,43,-99.99,,---,-99.99,VWS V14.01,2013-06-27 18:31:00,
2013-06-27 11:36:00,89.6,64.2,-100.00,North,-999,-999.0,-999.0,43,-99.99,,---,-99.99,VWS V14.01,2013-06-27 18:36:00,
2013-06-27 11:41:00,89.8,63.7,-100.00,North,-999,-999.0,-999.0,42,-99.99,,---,-99.99,VWS V14.01,2013-06-27 18:41:00,
2013-06-27 11:46:00,90.0,63.1,-100.00,North,-999,-999.0,-999.0,41,-99.99,,---,-99.99,VWS V14.01,2013-06-27 18:46:00,
2013-06-27 11:51:00,90.1,64.0,-100.00,North,-999,-999.0,-999.0,42,-99.99,,---,-99.99,VWS V14.01,2013-06-27 18:51:00,
2013-06-27 11:56:00,90.3,63.5,-100.00,North,-999,-999.0,-999.0,41,-99.99,,---,-99.99,VWS V14.01,2013-06-27 18:56:00,
2013-06-27 12:01:00,90.3,63.5,-100.00,North,-999,-999.0,-999.0,41,-99.99,,---,-99.99,VWS V14.01,2013-06-27 19:01:00,
2013-06-27 12:06:00,90.7,63.8,-100.00,North,-999,-999.0,-999.0,41,-99.99,,---,-99.99,VWS V14.01,2013-06-27 19:06:00,
2013-06-27 12:11:00,90.9,63.9,-100.00,North,-999,-999.0,-999.0,41,-99.99,,---,-99.99,VWS V14.01,2013-06-27 19:11:00,
2013-06-27 12:16:00,90.9,63.2,-100.00,North,-999,-999.0,-999.0,40,-99.99,,---,-99.99,VWS V14.01,2013-06-27 19:16:00,
2013-06-27 12:22:00,91.2,63.5,-100.00,North,-999,-999.0,-999.0,40,-99.99,,---,-99.99,VWS V14.01,2013-06-27 19:22:00,
2013-06-27 12:27:00,91.4,63.0,-100.00,North,-999,-999.0,-999.0,39,-99.99,,---,-99.99,VWS V14.01,2013-06-27 19:27:00,
2013-06-27 12:32:00,91.8,63.3,-100.00,North,-999,-999.0,-999.0,39,-99.99,,---,-99.99,VWS V14.01,2013-06-27 19:32:00,
2013-06-27 12:37:00,91.9,63.5,-100.00,North,-999,-999.0,-999.0,39,-99.99,,---,-99.99,VWS V14.01,2013-06-27 19:37:00,
2013-06-27 12:42:00,92.1,63.6,-100.00,North,-999,-999.0,-999.0,39,-99.99,,---,-99.99,VWS V14.01,2013-06-27 19:42:00,
2013-06-27 12:47:00,92.1,64.3,-100.00,North,-999,-999.0,-999.0,40,-99.99,,---,-99.99,VWS V14.01,2013-06-27 19:47:00,
2013-06-27 12:52:00,92.3,63.8,-100.00,North,-999,-999.0,-999.0,39,-99.99,,---,-99.99,VWS V14.01,2013-06-27 19:52:00,
2013-06-27 12:57:00,92.5,63.2,-100.00,North,-999,-999.0,-999.0,38,-99.99,,---,-99.99,VWS V14.01,2013-06-27 19:57:00,
2013-06-27 13:02:00,92.5,63.2,-100.00,North,-999,-999.0,-999.0,38,-99.99,,---,-99.99,VWS V14.01,2013-06-27 20:02:00,
2013-06-27 13:07:00,92.5,63.2,-100.00,North,-999,-999.0,-999.0,38,-99.99,,---,-99.99,VWS V14.01,2013-06-27 20:07:00,
2013-06-27 13:12:00,92.7,63.4,-100.00,North,-999,-999.0,-999.0,38,-99.99,,---,-99.99,VWS V14.01,2013-06-27 20:12:00,
2013-06-27 13:17:00,92.8,63.5,-100.00,North,-999,-999.0,-999.0,38,-99.99,,---,-99.99,VWS V14.01,2013-06-27 20:17:00,
2013-06-27 13:22:00,93.0,63.7,-100.00,North,-999,-999.0,-999.0,38,-99.99,,---,-99.99,VWS V14.01,2013-06-27 20:22:00,
2013-06-27 13:27:00,93.2,63.1,-100.00,North,-999,-999.0,-999.0,37,-99.99,,---,-99.99,VWS V14.01,2013-06-27 20:27:00,
2013-06-27 13:32:00,93.4,63.2,-100.00,North,-999,-999.0,-999.0,37,-99.99,,---,-99.99,VWS V14.01,2013-06-27 20:32:00,
2013-06-27 13:37:00,93.4,63.2,-100.00,North,-999,-999.0,-999.0,37,-99.99,,---,-99.99,VWS V14.01,2013-06-27 20:37:00,
2013-06-27 13:43:00,93.6,63.4,-100.00,North,-999,-999.0,-999.0,37,-99.99,,---,-99.99,VWS V14.01,2013-06-27 20:43:00,
2013-06-27 13:48:00,93.6,62.6,-100.00,North,-999,-999.0,-999.0,36,-99.99,,---,-99.99,VWS V14.01,2013-06-27 20:48:00,
2013-06-27 13:53:00,93.7,62.8,-100.00,North,-999,-999.0,-999.0,36,-99.99,,---,-99.99,VWS V14.01,2013-06-27 20:53:00,
2013-06-27 14:00:00,93.7,63.6,-100.00,North,-999,-999.0,-999.0,37,-99.99,,---,-99.99,VWS V14.01,2013-06-27 21:00:00,
2013-06-27 14:06:00,94.1,63.1,-100.00,North,-999,-999.0,-999.0,36,-99.99,,---,-99.99,VWS V14.01,2013-06-27 21:06:00,
2013-06-27 14:12:00,94.3,64.0,-100.00,North,-999,-999.0,-999.0,37,-99.99,,---,-99.99,VWS V14.01,2013-06-27 21:12:00,
2013-06-27 14:17:00,94.3,63.2,-100.00,North,-999,-999.0,-999.0,36,-99.99,,---,-99.99,VWS V14.01,2013-06-27 21:17:00,
2013-06-27 14:22:00,94.5,63.4,-100.00,North,-999,-999.0,-999.0,36,-99.99,,---,-99.99,VWS V14.01,2013-06-27 21:22:00,
2013-06-27 14:27:00,94.6,64.3,-100.00,North,-999,-999.0,-999.0,37,-99.99,,---,-99.99,VWS V14.01,2013-06-27 21:27:00,
2013-06-27 14:32:00,94.6,63.6,-100.00,North,-999,-999.0,-999.0,36,-99.99,,---,-99.99,VWS V14.01,2013-06-27 21:32:00,
2013-06-27 14:37:00,94.6,63.6,-100.00,North,-999,-999.0,-999.0,36,-99.99,,---,-99.99,VWS V14.01,2013-06-27 21:37:00,
2013-06-27 14:42:00,94.5,62.6,-100.00,North,-999,-999.0,-999.0,35,-99.99,,---,-99.99,VWS V14.01,2013-06-27 21:42:00,
2013-06-27 14:47:00,94.5,61.8,-100.00,North,-999,-999.0,-999.0,34,-99.99,,---,-99.99,VWS V14.01,2013-06-27 21:47:00,
2013-06-27 14:53:00,94.5,62.6,-100.00,North,-999,-999.0,-999.0,35,-99.99,,---,-99.99,VWS V14.01,2013-06-27 21:53:00,
2013-06-27 14:58:00,94.3,62.5,-100.00,North,-999,-999.0,-999.0,35,-99.99,,---,-99.99,VWS V14.01,2013-06-27 21:58:00,
2013-06-27 15:11:00,94.1,61.5,-100.00,North,-999,-999.0,-999.0,34,-99.99,,---,-99.99,VWS V14.01,2013-06-27 22:11:00,
2013-06-27 15:17:00,94.1,61.5,-100.00,North,-999,-999.0,-999.0,34,-99.99,,---,-99.99,VWS V14.01,2013-06-27 22:17:00,
2013-06-27 15:22:00,94.1,60.6,-100.00,North,-999,-999.0,-999.0,33,-99.99,,---,-99.99,VWS V14.01,2013-06-27 22:22:00,
2013-06-27 15:27:00,93.9,61.3,-100.00,North,-999,-999.0,-999.0,34,-99.99,,---,-99.99,VWS V14.01,2013-06-27 22:27:00,
2013-06-27 15:34:00,93.9,61.3,-100.00,North,-999,-999.0,-999.0,34,-99.99,,---,-99.99,VWS V14.01,2013-06-27 22:34:00,
2013-06-27 15:39:00,93.7,60.3,-100.00,North,-999,-999.0,-999.0,33,-99.99,,---,-99.99,VWS V14.01,2013-06-27 22:39:00,
2013-06-27 15:45:00,93.6,60.2,-100.00,North,-999,-999.0,-999.0,33,-99.99,,---,-99.99,VWS V14.01,2013-06-27 22:45:00,
2013-06-27 15:50:00,93.4,60.8,-100.00,North,-999,-999.0,-999.0,34,-99.99,,---,-99.99,VWS V14.01,2013-06-27 22:50:00,
2013-06-27 15:56:00,93.4,60.8,-100.00,North,-999,-999.0,-999.0,34,-99.99,,---,-99.99,VWS V14.01,2013-06-27 22:56:00,
2013-06-27 16:01:00,93.2,60.7,-100.00,North,-999,-999.0,-999.0,34,-99.99,,---,-99.99,VWS V14.01,2013-06-27 23:01:00,
2013-06-27 16:06:00,93.2,60.7,-100.00,North,-999,-999.0,-999.0,34,-99.99,,---,-99.99,VWS V14.01,2013-06-27 23:06:00,
2013-06-27 16:11:00,93.0,60.5,-100.00,North,-999,-999.0,-999.0,34,-99.99,,---,-99.99,VWS V14.01,2013-06-27 23:11:00,
2013-06-27 16:16:00,93.0,60.5,-100.00,North,-999,-999.0,-999.0,34,-99.99,,---,-99.99,VWS V14.01,2013-06-27 23:16:00,
2013-06-27 16:21:00,92.8,60.4,-100.00,North,-999,-999.0,-999.0,34,-99.99,,---,-99.99,VWS V14.01,2013-06-27 23:21:00,
2013-06-27 16:26:00,92.7,60.2,-100.00,North,-999,-999.0,-999.0,34,-99.99,,---,-99.99,VWS V14.01,2013-06-27 23:26:00,
2013-06-27 16:31:00,92.5,60.1,-100.00,North,-999,-999.0,-999.0,34,-99.99,,---,-99.99,VWS V14.01,2013-06-27 23:31:00,
2013-06-27 16:36:00,92.3,59.9,-100.00,North,-999,-999.0,-999.0,34,-99.99,,---,-99.99,VWS V14.01,2013-06-27 23:36:00,
2013-06-27 16:41:00,92.1,59.7,-100.00,North,-999,-999.0,-999.0,34,-99.99,,---,-99.99,VWS V14.01,2013-06-27 23:41:00,
2013-06-27 16:47:00,92.1,59.7,-100.00,North,-999,-999.0,-999.0,34,-99.99,,---,-99.99,VWS V14.01,2013-06-27 23:47:00,
2013-06-27 16:54:00,91.8,59.4,-100.00,North,-999,-999.0,-999.0,34,-99.99,,---,-99.99,VWS V14.01,2013-06-27 23:54:00,
2013-06-27 17:00:00,91.6,59.3,-100.00,North,-999,-999.0,-999.0,34,-99.99,,---,-99.99,VWS V14.01,2013-06-28 00:00:00,
2013-06-27 17:06:00,91.2,59.0,-100.00,North,-999,-999.0,-999.0,34,-99.99,,---,-99.99,VWS V14.01,2013-06-28 00:06:00,
2013-06-27 17:11:00,91.2,59.0,-100.00,North,-999,-999.0,-999.0,34,-99.99,,---,-99.99,VWS V14.01,2013-06-28 00:11:00,
2013-06-27 17:16:00,91.2,59.0,-100.00,North,-999,-999.0,-999.0,34,-99.99,,---,-99.99,VWS V14.01,2013-06-28 00:16:00,
2013-06-27 17:21:00,91.0,58.8,-100.00,North,-999,-999.0,-999.0,34,-99.99,,---,-99.99,VWS V14.01,2013-06-28 00:21:00,
2013-06-27 17:27:00,90.9,58.6,-100.00,North,-999,-999.0,-999.0,34,-99.99,,---,-99.99,VWS V14.01,2013-06-28 00:27:00,
2013-06-27 17:32:00,90.7,57.7,-100.00,North,-999,-999.0,-999.0,33,-99.99,,---,-99.99,VWS V14.01,2013-06-28 00:32:00,
2013-06-27 17:37:00,90.7,58.5,-100.00,North,-999,-999.0,-999.0,34,-99.99,,---,-99.99,VWS V14.01,2013-06-28 00:37:00,
2013-06-27 17:43:00,90.3,57.3,-100.00,North,-999,-999.0,-999.0,33,-99.99,,---,-99.99,VWS V14.01,2013-06-28 00:43:00,
2013-06-27 17:49:00,90.1,57.2,-100.00,North,-999,-999.0,-999.0,33,-99.99,,---,-99.99,VWS V14.01,2013-06-28 00:49:00,
2013-06-27 17:55:00,90.0,57.0,-100.00,North,-999,-999.0,-999.0,33,-99.99,,---,-99.99,VWS V14.01,2013-06-28 00:55:00,
2013-06-27 18:00:00,89.8,57.7,-100.00,North,-999,-999.0,-999.0,34,-99.99,,---,-99.99,VWS V14.01,2013-06-28 01:00:00,
2013-06-27 18:06:00,89.6,56.7,-100.00,North,-999,-999.0,-999.0,33,-99.99,,---,-99.99,VWS V14.01,2013-06-28 01:06:00,
2013-06-27 18:11:00,89.4,57.4,-100.00,North,-999,-999.0,-999.0,34,-99.99,,---,-99.99,VWS V14.01,2013-06-28 01:11:00,
2013-06-27 18:17:00,89.2,57.2,-100.00,North,-999,-999.0,-999.0,34,-99.99,,---,-99.99,VWS V14.01,2013-06-28 01:17:00,
2013-06-27 18:22:00,89.2,57.2,-100.00,North,-999,-999.0,-999.0,34,-99.99,,---,-99.99,VWS V14.01,2013-06-28 01:22:00,
2013-06-27 18:27:00,88.9,56.9,-100.00,North,-999,-999.0,-999.0,34,-99.99,,---,-99.99,VWS V14.01,2013-06-28 01:27:00,
2013-06-27 18:33:00,88.7,56.8,-100.00,North,-999,-999.0,-999.0,34,-99.99,,---,-99.99,VWS V14.01,2013-06-28 01:33:00,
2013-06-27 18:39:00,88.5,56.6,-100.00,North,-999,-999.0,-999.0,34,-99.99,,---,-99.99,VWS V14.01,2013-06-28 01:39:00,
2013-06-27 18:44:00,88.3,56.4,-100.00,North,-999,-999.0,-999.0,34,-99.99,,---,-99.99,VWS V14.01,2013-06-28 01:44:00,
2013-06-27 18:49:00,88.2,56.3,-100.00,North,-999,-999.0,-999.0,34,-99.99,,---,-99.99,VWS V14.01,2013-06-28 01:49:00,
2013-06-27 18:55:00,88.0,56.1,-100.00,North,-999,-999.0,-999.0,34,-99.99,,---,-99.99,VWS V14.01,2013-06-28 01:55:00,
2013-06-27 19:00:00,88.0,56.1,-100.00,North,-999,-999.0,-999.0,34,-99.99,,---,-99.99,VWS V14.01,2013-06-28 02:00:00,
2013-06-27 19:05:00,87.6,56.6,-100.00,North,-999,-999.0,-999.0,35,-99.99,,---,-99.99,VWS V14.01,2013-06-28 02:05:00,
2013-06-27 19:12:00,87.3,56.3,-100.00,North,-999,-999.0,-999.0,35,-99.99,,---,-99.99,VWS V14.01,2013-06-28 02:12:00,
2013-06-27 19:18:00,86.9,56.0,-100.00,North,-999,-999.0,-999.0,35,-99.99,,---,-99.99,VWS V14.01,2013-06-28 02:18:00,
2013-06-27 19:24:00,86.5,55.7,-100.00,North,-999,-999.0,-999.0,35,-99.99,,---,-99.99,VWS V14.01,2013-06-28 02:24:00,
2013-06-27 19:31:00,86.2,56.1,-100.00,North,-999,-999.0,-999.0,36,-99.99,,---,-99.99,VWS V14.01,2013-06-28 02:31:00,
2013-06-27 19:37:00,86.0,56.0,-100.00,North,-999,-999.0,-999.0,36,-99.99,,---,-99.99,VWS V14.01,2013-06-28 02:37:00,
2013-06-27 19:43:00,85.5,56.2,-100.00,North,-999,-999.0,-999.0,37,-99.99,,---,-99.99,VWS V14.01,2013-06-28 02:43:00,
2013-06-27 19:48:00,85.3,56.1,-100.00,North,-999,-999.0,-999.0,37,-99.99,,---,-99.99,VWS V14.01,2013-06-28 02:48:00,
2013-06-27 19:53:00,84.9,55.8,-100.00,North,-999,-999.0,-999.0,37,-99.99,,---,-99.99,VWS V14.01,2013-06-28 02:53:00,
2013-06-27 19:58:00,84.7,55.6,-100.00,North,-999,-999.0,-999.0,37,-99.99,,---,-99.99,VWS V14.01,2013-06-28 02:58:00,
2013-06-27 20:03:00,84.4,56.0,-100.00,North,-999,-999.0,-999.0,38,-99.99,,---,-99.99,VWS V14.01,2013-06-28 03:03:00,
2013-06-27 20:08:00,84.0,55.7,-100.00,North,-999,-999.0,-999.0,38,-99.99,,---,-99.99,VWS V14.01,2013-06-28 03:08:00,
2013-06-27 20:13:00,83.7,55.4,-100.00,North,-999,-999.0,-999.0,38,-99.99,,---,-99.99,VWS V14.01,2013-06-28 03:13:00,
2013-06-27 20:18:00,83.3,55.8,-100.00,North,-999,-999.0,-999.0,39,-99.99,,---,-99.99,VWS V14.01,2013-06-28 03:18:00,
2013-06-27 20:23:00,83.1,55.6,-100.00,North,-999,-999.0,-999.0,39,-99.99,,---,-99.99,VWS V14.01,2013-06-28 03:23:00,
2013-06-27 20:28:00,82.8,55.3,-100.00,North,-999,-999.0,-999.0,39,-99.99,,---,-99.99,VWS V14.01,2013-06-28 03:28:00,
2013-06-27 20:33:00,82.4,55.0,-100.00,North,-999,-999.0,-999.0,39,-99.99,,---,-99.99,VWS V14.01,2013-06-28 03:33:00,
2013-06-27 20:38:00,82.2,55.5,-100.00,North,-999,-999.0,-999.0,40,-99.99,,---,-99.99,VWS V14.01,2013-06-28 03:38:00,
2013-06-27 20:43:00,81.9,55.2,-100.00,North,-999,-999.0,-999.0,40,-99.99,,---,-99.99,VWS V14.01,2013-06-28 03:43:00,
2013-06-27 20:48:00,81.5,54.9,-100.00,North,-999,-999.0,-999.0,40,-99.99,,---,-99.99,VWS V14.01,2013-06-28 03:48:00,
2013-06-27 20:53:00,81.1,54.5,-100.00,North,-999,-999.0,-999.0,40,-99.99,,---,-99.99,VWS V14.01,2013-06-28 03:53:00,
2013-06-27 20:58:00,81.0,54.4,-100.00,North,-999,-999.0,-999.0,40,-99.99,,---,-99.99,VWS V14.01,2013-06-28 03:58:00,
2013-06-27 21:03:00,81.0,54.4,-100.00,North,-999,-999.0,-999.0,40,-99.99,,---,-99.99,VWS V14.01,2013-06-28 04:03:00,
2013-06-27 21:11:00,80.4,54.6,-100.00,North,-999,-999.0,-999.0,41,-99.99,,---,-99.99,VWS V14.01,2013-06-28 04:11:00,
2013-06-27 21:16:00,80.2,54.4,-100.00,North,-999,-999.0,-999.0,41,-99.99,,---,-99.99,VWS V14.01,2013-06-28 04:16:00,
2013-06-27 21:17:00,80.2,54.4,-100.00,North,-999,-999.0,-999.0,41,-99.99,,---,-99.99,VWS V14.01,2013-06-28 04:17:00,
2013-06-27 21:23:00,80.1,54.3,-100.00,North,-999,-999.0,-999.0,41,-99.99,,---,-99.99,VWS V14.01,2013-06-28 04:23:00,
2013-06-27 21:28:00,80.1,54.3,-100.00,North,-999,-999.0,-999.0,41,-99.99,,---,-99.99,VWS V14.01,2013-06-28 04:28:00,
2013-06-27 21:34:00,79.9,54.8,-100.00,North,-999,-999.0,-999.0,42,-99.99,,---,-99.99,VWS V14.01,2013-06-28 04:34:00,
2013-06-27 21:40:00,79.7,54.6,-100.00,North,-999,-999.0,-999.0,42,-99.99,,---,-99.99,VWS V14.01,2013-06-28 04:40:00,
2013-06-27 21:45:00,79.5,54.4,-100.00,North,-999,-999.0,-999.0,42,-99.99,,---,-99.99,VWS V14.01,2013-06-28 04:45:00,
2013-06-27 21:50:00,79.5,54.4,-100.00,North,-999,-999.0,-999.0,42,-99.99,,---,-99.99,VWS V14.01,2013-06-28 04:50:00,
2013-06-27 21:56:00,79.5,54.4,-100.00,North,-999,-999.0,-999.0,42,-99.99,,---,-99.99,VWS V14.01,2013-06-28 04:56:00,
2013-06-27 22:01:00,79.3,54.3,-100.00,North,-999,-999.0,-999.0,42,-99.99,,---,-99.99,VWS V14.01,2013-06-28 05:01:00,
2013-06-27 22:06:00,79.3,54.3,-100.00,North,-999,-999.0,-999.0,42,-99.99,,---,-99.99,VWS V14.01,2013-06-28 05:06:00,
2013-06-27 22:11:00,79.2,54.1,-100.00,North,-999,-999.0,-999.0,42,-99.99,,---,-99.99,VWS V14.01,2013-06-28 05:11:00,
2013-06-27 22:16:00,79.2,54.1,-100.00,North,-999,-999.0,-999.0,42,-99.99,,---,-99.99,VWS V14.01,2013-06-28 05:16:00,
2013-06-27 22:21:00,79.0,54.0,-100.00,North,-999,-999.0,-999.0,42,-99.99,,---,-99.99,VWS V14.01,2013-06-28 05:21:00,
2013-06-27 22:26:00,79.0,54.0,-100.00,North,-999,-999.0,-999.0,42,-99.99,,---,-99.99,VWS V14.01,2013-06-28 05:26:00,
2013-06-27 22:31:00,78.8,54.4,-100.00,North,-999,-999.0,-999.0,43,-99.99,,---,-99.99,VWS V14.01,2013-06-28 05:31:00,
2013-06-27 22:36:00,78.6,54.3,-100.00,North,-999,-999.0,-999.0,43,-99.99,,---,-99.99,VWS V14.01,2013-06-28 05:36:00,
2013-06-27 22:41:00,78.4,54.1,-100.00,North,-999,-999.0,-999.0,43,-99.99,,---,-99.99,VWS V14.01,2013-06-28 05:41:00,
2013-06-27 22:46:00,78.1,53.8,-100.00,North,-999,-999.0,-999.0,43,-99.99,,---,-99.99,VWS V14.01,2013-06-28 05:46:00,
2013-06-27 22:51:00,77.9,53.6,-100.00,North,-999,-999.0,-999.0,43,-99.99,,---,-99.99,VWS V14.01,2013-06-28 05:51:00,
2013-06-27 22:56:00,77.7,53.5,-100.00,North,-999,-999.0,-999.0,43,-99.99,,---,-99.99,VWS V14.01,2013-06-28 05:56:00,
2013-06-27 23:01:00,77.4,53.1,-100.00,North,-999,-999.0,-999.0,43,-99.99,,---,-99.99,VWS V14.01,2013-06-28 06:01:00,
2013-06-27 23:06:00,77.2,53.6,-100.00,North,-999,-999.0,-999.0,44,-99.99,,---,-99.99,VWS V14.01,2013-06-28 06:06:00,
2013-06-27 23:11:00,76.8,53.3,-100.00,North,-999,-999.0,-999.0,44,-99.99,,---,-99.99,VWS V14.01,2013-06-28 06:11:00,
2013-06-27 23:16:00,76.6,53.1,-100.00,North,-999,-999.0,-999.0,44,-99.99,,---,-99.99,VWS V14.01,2013-06-28 06:16:00,
2013-06-27 23:21:00,76.3,52.8,-100.00,North,-999,-999.0,-999.0,44,-99.99,,---,-99.99,VWS V14.01,2013-06-28 06:21:00,
2013-06-27 23:26:00,76.1,52.6,-100.00,North,-999,-999.0,-999.0,44,-99.99,,---,-99.99,VWS V14.01,2013-06-28 06:26:00,
2013-06-27 23:31:00,76.1,53.2,-100.00,North,-999,-999.0,-999.0,45,-99.99,,---,-99.99,VWS V14.01,2013-06-28 06:31:00,
2013-06-27 23:36:00,75.9,53.1,-100.00,North,-999,-999.0,-999.0,45,-99.99,,---,-99.99,VWS V14.01,2013-06-28 06:36:00,
2013-06-27 23:41:00,75.7,52.9,-100.00,North,-999,-999.0,-999.0,45,-99.99,,---,-99.99,VWS V14.01,2013-06-28 06:41:00,
2013-06-27 23:46:00,75.6,52.8,-100.00,North,-999,-999.0,-999.0,45,-99.99,,---,-99.99,VWS V14.01,2013-06-28 06:46:00,
2013-06-27 23:51:00,75.4,52.6,-100.00,North,-999,-999.0,-999.0,45,-99.99,,---,-99.99,VWS V14.01,2013-06-28 06:51:00,
2013-06-27 23:56:00,75.2,52.4,-100.00,North,-999,-999.0,-999.0,45,-99.99,,---,-99.99,VWS V14.01,2013-06-28 06:56:00,